createdAt,value
2019-02-18T00:01:54.924Z,101036.91
2019-02-18T00:04:27.184Z,101030.89
2019-02-18T00:07:00.076Z,101037.00
2019-02-18T00:09:31.954Z,101037.02
2019-02-18T00:12:05.127Z,101043.49
2019-02-18T00:14:36.770Z,101046.98
2019-02-18T00:17:08.740Z,101043.94
2019-02-18T00:19:40.342Z,101043.07
2019-02-18T00:22:12.075Z,101046.55
2019-02-18T00:24:43.851Z,101042.67
2019-02-18T00:27:15.609Z,101048.72
2019-02-18T00:29:47.217Z,101043.96
2019-02-18T00:32:18.889Z,101044.84
2019-02-18T00:34:50.869Z,101041.80
2019-02-18T00:37:24.694Z,101046.55
2019-02-18T00:39:56.052Z,101049.98
2019-02-18T00:42:27.907Z,101044.36
2019-02-18T00:44:59.541Z,101047.38
2019-02-18T00:47:31.155Z,101052.16
2019-02-18T00:50:02.889Z,101051.27
2019-02-18T00:52:34.534Z,101051.70
2019-02-18T00:55:07.574Z,101048.24
2019-02-18T00:57:39.470Z,101051.25
2019-02-18T01:00:13.846Z,101053.42
2019-02-18T01:02:46.878Z,101060.78
2019-02-18T01:05:18.618Z,101056.00
2019-02-18T01:07:50.259Z,101054.69
2019-02-18T01:10:22.169Z,101056.44
2019-02-18T01:12:54.188Z,101053.45
2019-02-18T01:15:25.799Z,101054.78
2019-02-18T01:17:57.442Z,101060.00
2019-02-18T01:20:29.071Z,101059.12
2019-02-18T01:23:00.681Z,101061.75
2019-02-18T01:25:32.268Z,101060.87
2019-02-18T01:28:04.152Z,101058.70
2019-02-18T01:30:35.754Z,101056.97
2019-02-18T01:33:07.417Z,101048.77
2019-02-18T01:35:39.034Z,101053.10
2019-02-18T01:38:10.651Z,101046.19
2019-02-18T01:40:43.377Z,101044.89
2019-02-18T01:43:15.072Z,101041.43
2019-02-18T01:45:46.955Z,101038.38
2019-02-18T01:48:18.724Z,101036.66
2019-02-18T01:50:50.499Z,101032.77
2019-02-18T01:53:22.446Z,101035.34
2019-02-18T01:55:54.039Z,101036.22
2019-02-18T01:58:25.920Z,101035.79
2019-02-18T02:00:57.650Z,101032.32
2019-02-18T02:03:29.498Z,101023.68
2019-02-18T02:06:01.342Z,101021.55
2019-02-18T02:08:33.274Z,101020.67
2019-02-18T02:11:05.071Z,101017.20
2019-02-18T02:13:37.991Z,101008.59
2019-02-18T02:16:12.384Z,101004.70
2019-02-18T02:18:44.224Z,101005.53
2019-02-18T02:21:16.237Z,101007.27
2019-02-18T02:23:48.019Z,101001.65
2019-02-18T02:26:20.827Z,100995.63
2019-02-18T02:28:53.572Z,100995.63
2019-02-18T02:31:25.750Z,100999.08
2019-02-18T02:33:57.325Z,100999.48
2019-02-18T02:36:29.282Z,101000.78
2019-02-18T02:39:00.997Z,101000.77
2019-02-18T02:41:32.726Z,100993.00
2019-02-18T02:44:04.419Z,100988.23
2019-02-18T02:46:36.028Z,100995.17
2019-02-18T02:49:08.759Z,100996.90
2019-02-18T02:51:40.478Z,100998.61
2019-02-18T02:54:12.208Z,100999.45
2019-02-18T02:56:43.904Z,100994.28
2019-02-18T02:59:15.667Z,101001.63
2019-02-18T03:01:47.554Z,100995.55
2019-02-18T03:04:19.184Z,100989.94
2019-02-18T03:06:50.965Z,100994.67
2019-02-18T03:09:22.617Z,100999.87
2019-02-18T03:11:54.373Z,100998.99
2019-02-18T03:14:26.485Z,100998.97
2019-02-18T03:16:58.396Z,100994.23
2019-02-18T03:19:30.059Z,100995.50
2019-02-18T03:22:02.075Z,100995.05
2019-02-18T03:24:33.953Z,101004.56
2019-02-18T03:27:07.165Z,100995.91
2019-02-18T03:30:58.677Z,100992.06
2019-02-18T03:33:39.002Z,100996.80
2019-02-18T03:36:10.644Z,100993.34
2019-02-18T03:38:42.545Z,100992.50
2019-02-18T03:41:14.134Z,100999.41
2019-02-18T03:43:46.995Z,101008.89
2019-02-18T03:46:18.601Z,101001.92
2019-02-18T03:48:50.289Z,101012.69
2019-02-18T03:51:21.910Z,101003.20
2019-02-18T03:53:53.711Z,101006.22
2019-02-18T03:56:25.338Z,101008.39
2019-02-18T03:58:57.013Z,101007.55
2019-02-18T04:01:28.867Z,101009.30
2019-02-18T04:04:00.502Z,101011.04
2019-02-18T04:06:32.261Z,101009.32
2019-02-18T04:09:04.929Z,101016.21
2019-02-18T04:11:36.542Z,101014.92
2019-02-18T04:14:08.543Z,101015.34
2019-02-18T04:16:40.239Z,101016.17
2019-02-18T04:19:11.962Z,101024.80
2019-02-18T04:21:43.655Z,101021.30
2019-02-18T04:24:15.356Z,101029.06
2019-02-18T04:26:47.298Z,101033.31
2019-02-18T04:29:18.985Z,101025.97
2019-02-18T04:31:50.729Z,101024.68
2019-02-18T04:34:22.385Z,101018.23
2019-02-18T04:36:54.019Z,101013.07
2019-02-18T04:39:25.871Z,101014.81
2019-02-18T04:41:57.583Z,101019.52
2019-02-18T04:44:29.457Z,101020.81
2019-02-18T04:47:01.253Z,101024.70
2019-02-18T04:49:33.096Z,101022.11
2019-02-18T04:52:04.794Z,101023.41
2019-02-18T04:54:36.575Z,101016.92
2019-02-18T04:57:08.343Z,101015.23
2019-02-18T04:59:40.097Z,101019.13
2019-02-18T05:02:11.883Z,101008.38
2019-02-18T05:04:43.608Z,101015.72
2019-02-18T05:07:15.275Z,101014.86
2019-02-18T05:09:47.199Z,101013.11
2019-02-18T05:12:19.097Z,101013.92
2019-02-18T05:14:50.851Z,101011.28
2019-02-18T05:17:22.574Z,101007.41
2019-02-18T05:19:54.191Z,101006.92
2019-02-18T05:22:27.370Z,101007.75
2019-02-18T05:24:59.015Z,101000.83
2019-02-18T05:27:33.533Z,101002.52
2019-02-18T05:30:05.740Z,100999.09
2019-02-18T05:32:37.384Z,101002.98
2019-02-18T05:35:09.109Z,101005.58
2019-02-18T05:37:40.756Z,101003.00
2019-02-18T05:40:16.823Z,101005.12
2019-02-18T05:42:47.524Z,101009.87
2019-02-18T05:45:19.181Z,101006.37
2019-02-18T05:47:50.809Z,101003.79
2019-02-18T05:50:22.423Z,101010.22
2019-02-18T05:52:54.051Z,101000.29
2019-02-18T05:55:25.776Z,101000.27
2019-02-18T05:57:57.555Z,101011.50
2019-02-18T06:00:29.637Z,101008.91
2019-02-18T06:03:01.275Z,101008.94
2019-02-18T06:05:32.903Z,101002.90
2019-02-18T06:08:04.561Z,101000.33
2019-02-18T06:10:36.211Z,101003.33
2019-02-18T06:13:07.950Z,101004.20
2019-02-18T06:15:39.600Z,101003.72
2019-02-18T06:18:10.198Z,101003.28
2019-02-18T06:20:39.400Z,101001.98
2019-02-18T06:23:11.052Z,101003.77
2019-02-18T06:25:42.715Z,101000.31
2019-02-18T06:28:14.757Z,100996.45
2019-02-18T06:30:47.406Z,100999.48
2019-02-18T06:33:19.120Z,100998.23
2019-02-18T06:35:51.382Z,100993.51
2019-02-18T06:38:23.439Z,100994.39
2019-02-18T06:40:55.037Z,100999.57
2019-02-18T06:43:26.851Z,101001.31
2019-02-18T06:46:24.590Z,100999.61
2019-02-18T06:49:02.715Z,101002.21
2019-02-18T06:51:34.444Z,101008.25
2019-02-18T06:54:06.105Z,101003.93
2019-02-18T06:56:55.883Z,101006.03
2019-02-18T06:59:31.804Z,101002.97
2019-02-18T07:02:22.312Z,101011.56
2019-02-18T07:05:00.318Z,101017.54
2019-02-18T07:07:50.139Z,101009.73
2019-02-18T07:10:40.717Z,101012.30
2019-02-18T07:13:12.544Z,101014.86
2019-02-18T07:15:44.399Z,101011.42
2019-02-18T07:18:16.274Z,101021.75
2019-02-18T07:20:48.018Z,101018.76
2019-02-18T07:23:19.719Z,101023.06
2019-02-18T07:25:51.384Z,101030.41
2019-02-18T07:28:23.244Z,101027.81
2019-02-18T07:30:55.039Z,101032.16
2019-02-18T07:33:26.796Z,101036.53
2019-02-18T07:35:58.487Z,101037.02
2019-02-18T07:38:30.138Z,101030.16
2019-02-18T07:41:03.136Z,101028.48
2019-02-18T07:43:34.900Z,101030.26
2019-02-18T07:46:06.929Z,101031.58
2019-02-18T07:48:38.678Z,101027.28
2019-02-18T07:51:10.319Z,101025.16
2019-02-18T07:53:41.979Z,101026.50
2019-02-18T07:56:13.736Z,101023.50
2019-02-18T07:58:45.403Z,101022.25
2019-02-18T08:01:17.212Z,101020.11
2019-02-18T08:03:49.093Z,101018.44
2019-02-18T08:06:20.756Z,101012.84
2019-02-18T08:08:52.398Z,101017.19
2019-02-18T08:11:24.153Z,101012.45
2019-02-18T08:13:56.185Z,101012.88
2019-02-18T08:16:28.111Z,101015.91
2019-02-18T08:18:59.932Z,101017.65
2019-02-18T08:21:31.590Z,101023.24
2019-02-18T08:24:03.310Z,101012.47
2019-02-18T08:26:35.048Z,101005.53
2019-02-18T08:29:06.711Z,101007.25
2019-02-18T08:31:38.686Z,101006.34
2019-02-18T08:34:10.336Z,100994.19
2019-02-18T08:36:42.036Z,100998.92
2019-02-18T08:39:13.665Z,100994.12
2019-02-18T08:41:45.308Z,101002.70
2019-02-18T08:44:17.044Z,100997.88
2019-02-18T08:46:48.680Z,100996.52
2019-02-18T08:49:20.551Z,100988.63
2019-02-18T08:51:52.387Z,100987.70
2019-02-18T08:54:24.058Z,100983.72
2019-02-18T08:56:55.646Z,100985.77
2019-02-18T08:59:27.317Z,100983.47
2019-02-18T09:01:59.238Z,100983.80
2019-02-18T09:04:31.036Z,100985.87
2019-02-18T09:07:02.862Z,100986.20
2019-02-18T09:09:34.489Z,100990.86
2019-02-18T09:12:06.113Z,100991.62
2019-02-18T09:14:37.820Z,100993.23
2019-02-18T09:17:09.612Z,100987.90
2019-02-18T09:19:41.376Z,100989.93
2019-02-18T09:22:31.014Z,100990.23
2019-02-18T09:25:08.440Z,100987.07
2019-02-18T09:27:40.514Z,100989.09
2019-02-18T09:30:15.251Z,100981.55
2019-02-18T09:32:47.911Z,100987.05
2019-02-18T09:35:19.596Z,100981.69
2019-02-18T09:37:51.211Z,100978.05
2019-02-18T09:40:23.084Z,100973.55
2019-02-18T09:42:54.833Z,100975.13
2019-02-18T09:45:26.493Z,100973.64
2019-02-18T09:47:58.290Z,100973.02
2019-02-18T09:50:29.915Z,100969.37
2019-02-18T09:53:02.512Z,100965.33
2019-02-18T09:55:34.453Z,100972.13
2019-02-18T09:58:06.890Z,100964.17
2019-02-18T10:00:39.625Z,100965.74
2019-02-18T10:03:11.268Z,100958.23
2019-02-18T10:05:43.249Z,100963.70
2019-02-18T10:08:14.933Z,100955.23
2019-02-18T10:10:55.427Z,100957.21
2019-02-18T10:13:21.555Z,100949.23
2019-02-18T10:15:53.219Z,100948.61
2019-02-18T10:18:25.035Z,100951.48
2019-02-18T10:20:56.702Z,100946.50
2019-02-18T10:23:28.424Z,100945.48
2019-02-18T10:26:00.767Z,100947.03
2019-02-18T10:28:32.664Z,100938.61
2019-02-18T10:31:04.366Z,100937.17
2019-02-18T10:33:36.025Z,100936.08
2019-02-18T10:36:07.675Z,100931.57
2019-02-18T10:38:40.285Z,100924.00
2019-02-18T10:41:12.443Z,100919.00
2019-02-18T10:43:44.513Z,100926.70
2019-02-18T10:46:16.134Z,100921.23
2019-02-18T10:48:49.391Z,100913.23
2019-02-18T10:51:21.204Z,100908.25
2019-02-18T10:53:52.935Z,100900.66
2019-02-18T10:56:24.589Z,100897.82
2019-02-18T10:58:56.918Z,100899.77
2019-02-18T11:01:28.609Z,100892.19
2019-02-18T11:04:00.234Z,100894.61
2019-02-18T11:06:31.850Z,100886.97
2019-02-18T11:09:04.066Z,100884.97
2019-02-18T11:11:37.486Z,100877.32
2019-02-18T11:14:09.775Z,100875.80
2019-02-18T11:16:41.778Z,100864.63
2019-02-18T11:19:13.653Z,100860.81
2019-02-18T11:21:45.607Z,100860.55
2019-02-18T11:24:17.330Z,100857.60
2019-02-18T11:26:49.018Z,100846.81
2019-02-18T11:29:21.419Z,100842.12
2019-02-18T11:31:53.257Z,100836.68
2019-02-18T11:34:24.928Z,100839.90
2019-02-18T11:36:56.595Z,100837.48
2019-02-18T11:39:28.820Z,100831.95
2019-02-18T11:42:00.486Z,100821.66
2019-02-18T11:44:32.930Z,100819.20
2019-02-18T11:47:04.589Z,100815.52
2019-02-18T11:49:36.453Z,100807.95
2019-02-18T11:52:09.562Z,100805.49
2019-02-18T11:54:41.238Z,100800.48
2019-02-18T11:57:12.876Z,100797.64
2019-02-18T11:59:45.283Z,100797.02
2019-02-18T12:02:17.080Z,100789.42
2019-02-18T12:04:50.305Z,100784.45
2019-02-18T12:07:21.961Z,100785.95
2019-02-18T12:09:53.727Z,100786.17
2019-02-18T12:12:25.573Z,100779.78
2019-02-18T12:14:57.915Z,100767.33
2019-02-18T12:17:30.138Z,100764.92
2019-02-18T12:20:01.907Z,100762.57
2019-02-18T12:22:37.747Z,100751.87
2019-02-18T12:25:09.510Z,100749.11
2019-02-18T12:27:41.238Z,100742.84
2019-02-18T12:30:15.224Z,100738.72
2019-02-18T12:32:48.144Z,100741.16
2019-02-18T12:35:30.219Z,100733.22
2019-02-18T12:37:55.628Z,100727.82
2019-02-18T12:40:26.768Z,100723.69
2019-02-18T12:42:58.560Z,100717.50
2019-02-18T12:45:30.629Z,100713.41
2019-02-18T12:48:02.354Z,100711.50
2019-02-18T12:50:34.026Z,100702.65
2019-02-18T12:53:05.684Z,100699.88
2019-02-18T12:55:37.428Z,100701.54
2019-02-18T12:58:09.254Z,100695.77
2019-02-18T13:00:41.321Z,100690.31
2019-02-18T13:03:13.660Z,100692.39
2019-02-18T13:05:45.729Z,100683.84
2019-02-18T13:08:17.371Z,100685.91
2019-02-18T13:10:50.011Z,100681.37
2019-02-18T13:13:21.788Z,100674.64
2019-02-18T13:15:54.674Z,100672.36
2019-02-18T13:18:26.864Z,100670.03
2019-02-18T13:20:58.503Z,100666.03
2019-02-18T13:23:30.232Z,100660.66
2019-02-18T13:26:01.845Z,100660.50
2019-02-18T13:28:34.632Z,100659.64
2019-02-18T13:31:06.312Z,100660.34
2019-02-18T13:33:38.928Z,100656.22
2019-02-18T13:36:16.034Z,100652.12
2019-02-18T13:38:48.561Z,100649.83
2019-02-18T13:41:20.578Z,100644.41
2019-02-18T13:43:52.267Z,100639.39
2019-02-18T13:46:23.915Z,100635.69
2019-02-18T13:48:57.810Z,100638.14
2019-02-18T13:51:29.440Z,100633.02
2019-02-18T13:54:01.182Z,100628.34
2019-02-18T13:56:33.267Z,100636.76
2019-02-18T13:59:04.928Z,100623.34
2019-02-18T14:01:36.616Z,100629.55
2019-02-18T14:04:09.186Z,100626.75
2019-02-18T14:06:40.877Z,100625.77
2019-02-18T14:09:12.849Z,100629.95
2019-02-18T14:11:44.738Z,100625.02
2019-02-18T14:14:16.412Z,100625.32
2019-02-18T14:16:48.853Z,100621.59
2019-02-18T14:19:21.355Z,100623.58
2019-02-18T14:21:53.525Z,100614.98
2019-02-18T14:24:25.350Z,100619.57
2019-02-18T14:26:59.085Z,100615.84
2019-02-18T14:29:30.892Z,100612.59
2019-02-18T14:32:02.657Z,100612.52
2019-02-18T14:34:36.571Z,100611.13
2019-02-18T14:37:08.613Z,100607.48
2019-02-18T14:39:40.332Z,100604.21
2019-02-18T14:42:12.113Z,100602.30
2019-02-18T14:44:44.308Z,100607.01
2019-02-18T14:47:16.040Z,100600.28
2019-02-18T14:49:47.737Z,100603.61
2019-02-18T14:52:20.487Z,100608.72
2019-02-18T14:54:52.143Z,100608.98
2019-02-18T14:57:24.571Z,100607.95
2019-02-18T14:59:56.217Z,100613.16
2019-02-18T15:02:28.370Z,100609.13
2019-02-18T15:05:00.148Z,100614.31
2019-02-18T15:07:32.613Z,100604.61
2019-02-18T15:10:04.710Z,100595.38
2019-02-18T15:12:37.049Z,100598.41
2019-02-18T15:15:08.816Z,100593.20
2019-02-18T15:17:40.672Z,100594.16
2019-02-18T15:20:12.428Z,100594.16
2019-02-18T15:22:45.306Z,100589.87
2019-02-18T15:25:17.022Z,100596.94
2019-02-18T15:27:48.791Z,100592.13
2019-02-18T15:30:20.714Z,100595.33
2019-02-18T15:32:52.454Z,100595.85
2019-02-18T15:35:24.238Z,100595.92
2019-02-18T15:37:56.751Z,100587.72
2019-02-18T15:40:28.833Z,100586.39
2019-02-18T15:43:00.937Z,100582.97
2019-02-18T15:45:32.786Z,100576.94
2019-02-18T15:48:04.614Z,100573.52
2019-02-18T15:50:36.474Z,100573.19
2019-02-18T15:53:08.850Z,100572.89
2019-02-18T15:55:41.955Z,100569.56
2019-02-18T15:58:14.000Z,100568.84
2019-02-18T16:00:45.735Z,100562.03
2019-02-18T16:03:17.405Z,100559.30
2019-02-18T16:05:49.075Z,100555.67
2019-02-18T16:08:21.421Z,100558.61
2019-02-18T16:10:53.459Z,100551.00
2019-02-18T16:13:25.434Z,100549.13
2019-02-18T16:15:57.236Z,100551.59
2019-02-18T16:18:29.197Z,100539.66
2019-02-18T16:21:00.896Z,100544.83
2019-02-18T16:23:33.074Z,100545.14
2019-02-18T16:26:05.506Z,100547.30
2019-02-18T16:28:37.187Z,100544.50
2019-02-18T16:31:08.906Z,100547.02
2019-02-18T16:33:40.653Z,100547.86
2019-02-18T16:36:12.355Z,100548.02
2019-02-18T16:38:44.005Z,100550.28
2019-02-18T16:41:16.300Z,100546.76
2019-02-18T16:43:48.064Z,100550.13
2019-02-18T16:46:20.338Z,100547.05
2019-02-18T16:48:52.298Z,100544.38
2019-02-18T16:51:23.996Z,100543.53
2019-02-18T16:53:55.770Z,100547.44
2019-02-18T16:56:28.387Z,100546.41
2019-02-18T16:59:00.304Z,100551.92
2019-02-18T17:01:32.314Z,100555.00
2019-02-18T17:04:03.990Z,100558.17
2019-02-18T17:06:35.693Z,100554.22
2019-02-18T17:09:14.757Z,100560.69
2019-02-18T17:11:47.103Z,100558.09
2019-02-18T17:14:18.958Z,100567.61
2019-02-18T17:16:50.663Z,100569.56
2019-02-18T17:19:22.618Z,100565.00
2019-02-18T17:21:54.434Z,100568.32
2019-02-18T17:24:26.534Z,100568.11
2019-02-18T17:26:58.896Z,100572.63
2019-02-18T17:29:30.834Z,100571.05
2019-02-18T17:32:02.534Z,100576.88
2019-02-18T17:34:34.217Z,100573.09
2019-02-18T17:37:06.270Z,100571.05
2019-02-18T17:39:37.963Z,100572.04
2019-02-18T17:42:10.384Z,100572.14
2019-02-18T17:44:42.254Z,100559.16
2019-02-18T17:47:14.349Z,100559.34
2019-02-18T17:49:46.043Z,100559.44
2019-02-18T17:52:17.956Z,100560.38
2019-02-18T17:54:49.691Z,100559.16
2019-02-18T17:57:21.884Z,100566.75
2019-02-18T17:59:53.736Z,100566.70
2019-02-18T18:02:25.654Z,100577.30
2019-02-18T18:04:57.338Z,100578.99
2019-02-18T18:07:29.123Z,100581.34
2019-02-18T18:10:00.809Z,100584.91
2019-02-18T18:12:33.349Z,100582.69
2019-02-18T18:15:05.442Z,100583.41
2019-02-18T18:17:37.776Z,100586.16
2019-02-18T18:20:10.677Z,100589.75
2019-02-18T18:22:42.357Z,100582.84
2019-02-18T18:25:14.368Z,100576.81
2019-02-18T18:27:46.776Z,100582.91
2019-02-18T18:30:18.644Z,100578.57
2019-02-18T18:32:50.718Z,100580.08
2019-02-18T18:35:22.546Z,100580.84
2019-02-18T18:37:57.588Z,100580.66
2019-02-18T18:40:32.046Z,100580.39
2019-02-18T18:43:04.639Z,100580.47
2019-02-18T18:45:37.426Z,100570.45
2019-02-18T18:48:09.148Z,100577.41
2019-02-18T18:50:41.019Z,100578.67
2019-02-18T18:53:12.701Z,100576.52
2019-02-18T18:55:46.399Z,100575.69
2019-02-18T18:58:18.178Z,100576.81
2019-02-18T19:00:50.723Z,100580.51
2019-02-18T19:03:22.514Z,100570.27
2019-02-18T19:05:54.383Z,100583.94
2019-02-18T19:08:28.033Z,100584.19
2019-02-18T19:10:59.849Z,100584.81
2019-02-18T19:13:31.863Z,100588.88
2019-02-18T19:16:04.100Z,100596.31
2019-02-18T19:18:36.052Z,100583.69
2019-02-18T19:21:08.227Z,100591.05
2019-02-18T19:23:40.393Z,100587.58
2019-02-18T19:26:13.560Z,100600.66
2019-02-18T19:28:46.529Z,100607.19
2019-02-18T19:31:18.533Z,100615.59
2019-02-18T19:33:51.382Z,100614.08
2019-02-18T19:36:23.333Z,100622.12
2019-02-18T19:38:55.338Z,100618.81
2019-02-18T19:46:29.732Z,100618.50
2019-02-18T19:49:01.820Z,100628.55
2019-02-18T19:51:34.893Z,100625.97
2019-02-18T19:54:07.243Z,100625.48
2019-02-18T19:56:39.372Z,100621.11
2019-02-18T19:59:11.478Z,100623.66
2019-02-18T20:01:44.901Z,100622.77
2019-02-18T20:04:16.918Z,100628.41
2019-02-18T20:06:49.310Z,100618.84
2019-02-18T20:09:21.114Z,100614.10
2019-02-18T20:11:53.197Z,100618.09
2019-02-18T20:14:25.072Z,100619.53
2019-02-18T20:16:57.653Z,100618.83
2019-02-18T20:19:29.776Z,100631.64
2019-02-18T20:22:01.781Z,100633.17
2019-02-18T20:24:33.877Z,100624.95
2019-02-18T20:27:05.968Z,100630.30
2019-02-18T20:29:37.771Z,100637.09
2019-02-18T20:32:11.630Z,100630.95
2019-02-18T20:34:44.954Z,100636.44
2019-02-18T20:37:17.390Z,100635.72
2019-02-18T20:39:49.216Z,100628.00
2019-02-18T20:42:20.991Z,100633.31
2019-02-18T20:44:52.829Z,100635.18
2019-02-18T20:47:25.453Z,100627.05
2019-02-18T20:49:57.709Z,100640.59
2019-02-18T20:52:30.320Z,100635.44
2019-02-18T20:55:02.039Z,100635.47
2019-02-18T20:57:33.908Z,100636.32
2019-02-18T21:00:08.322Z,100636.30
2019-02-18T21:02:40.120Z,100646.38
2019-02-18T21:05:12.052Z,100636.93
2019-02-18T21:07:44.443Z,100637.88
2019-02-18T21:10:18.045Z,100641.80
2019-02-18T21:12:51.265Z,100647.02
2019-02-18T21:15:23.037Z,100634.85
2019-02-18T21:17:54.986Z,100640.93
2019-02-18T21:20:26.714Z,100644.37
2019-02-18T21:22:58.489Z,100647.48
2019-02-18T21:25:30.733Z,100647.25
2019-02-18T21:28:02.409Z,100650.52
2019-02-18T21:30:34.225Z,100651.93
2019-02-18T21:33:05.916Z,100650.23
2019-02-18T21:35:37.811Z,100651.11
2019-02-18T21:38:09.772Z,100653.34
2019-02-18T21:40:41.903Z,100660.64
2019-02-18T21:43:13.672Z,100649.77
2019-02-18T21:45:45.492Z,100647.63
2019-02-18T21:48:18.719Z,100648.95
2019-02-18T21:50:51.009Z,100647.26
2019-02-18T21:53:22.797Z,100658.94
2019-02-18T21:55:54.816Z,100663.72
2019-02-18T21:58:26.905Z,100655.03
2019-02-18T22:00:58.675Z,100652.03
2019-02-18T22:03:30.431Z,100659.86
2019-02-18T22:06:02.107Z,100659.91
2019-02-18T22:08:33.797Z,100655.23
2019-02-18T22:11:07.787Z,100658.78
2019-02-18T22:13:39.672Z,100657.97
2019-02-18T22:16:11.384Z,100661.07
2019-02-18T22:18:43.380Z,100654.16
2019-02-18T22:21:15.552Z,100650.70
2019-02-18T22:23:47.671Z,100651.20
2019-02-18T22:26:19.698Z,100651.64
2019-02-18T22:28:51.355Z,100652.53
2019-02-18T22:31:23.164Z,100652.53
2019-02-18T22:33:56.496Z,100649.45
2019-02-18T22:36:30.618Z,100654.67
2019-02-18T22:39:07.560Z,100655.09
2019-02-18T22:41:40.437Z,100662.44
2019-02-18T22:44:13.458Z,100662.44
2019-02-18T22:46:45.202Z,100658.58
2019-02-18T22:49:19.630Z,100658.24
2019-02-18T22:51:51.855Z,100665.73
2019-02-18T22:54:25.177Z,100655.34
2019-02-18T22:56:57.133Z,100666.63
2019-02-18T22:59:29.809Z,100665.73
2019-02-18T23:02:01.540Z,100666.19
2019-02-18T23:04:33.430Z,100667.48
2019-02-18T23:07:05.186Z,100673.16
2019-02-18T23:09:37.120Z,100666.67
2019-02-18T23:12:13.620Z,100671.88
2019-02-18T23:14:50.526Z,100668.48
2019-02-18T23:17:19.245Z,100667.20
2019-02-18T23:19:51.052Z,100672.47
2019-02-18T23:22:22.671Z,100672.91
2019-02-18T23:24:56.493Z,100680.75
2019-02-18T23:27:28.274Z,100684.69
2019-02-18T23:30:00.655Z,100686.91
2019-02-18T23:32:32.306Z,100685.64
2019-02-18T23:35:04.408Z,100689.11
2019-02-18T23:37:36.567Z,100689.13
2019-02-18T23:40:10.643Z,100688.75
2019-02-18T23:42:42.425Z,100690.52
2019-02-18T23:45:14.446Z,100691.41
2019-02-18T23:47:46.068Z,100697.97
2019-02-18T23:50:17.703Z,100697.97
2019-02-18T23:52:49.724Z,100691.91
2019-02-18T23:55:21.392Z,100688.42
2019-02-18T23:57:53.048Z,100683.66
